Time;durP1;ratioP1;P1;durP2;ratioP2;P2;SDS_P1;SDS_P2;PMS_P1;PMS_P2;Temp;Humidity;BMP_temperature;BMP_pressure;BME280_temperature;BME280_humidity;BME280_pressure;Samples;Min_cycle;Max_cycle;Signal;HPM_P1;HPM_P2
2022/07/20 00:00:51;;;;;;;11.20;5.37;;;27.20;42.60;;;;;;4952610;28;20518;-89
2022/07/20 00:03:17;;;;;;;4.90;4.17;;;27.20;42.80;;;;;;4957636;28;20215;-86
2022/07/20 00:05:43;;;;;;;6.50;4.70;;;28.30;43.60;;;;;;4958451;28;20188;-87
2022/07/20 00:08:10;;;;;;;10.60;4.93;;;27.00;42.60;;;;;;4965236;28;20192;-88
2022/07/20 00:13:21;;;;;;;10.77;4.70;;;27.00;42.60;;;;;;4954577;28;20519;-89
2022/07/20 00:15:47;;;;;;;9.10;4.47;;;27.00;43.10;;;;;;4966597;28;20459;-87
2022/07/20 00:18:13;;;;;;;7.43;4.90;;;26.90;43.30;;;;;;4961702;28;21115;-88
2022/07/20 00:20:39;;;;;;;14.00;5.17;;;26.90;43.30;;;;;;4956645;28;20208;-89
2022/07/20 00:23:04;;;;;;;6.13;4.37;;;26.90;43.50;;;;;;4961653;28;20457;-89
2022/07/20 00:25:30;;;;;;;6.93;4.10;;;26.90;43.50;;;;;;4950074;28;20172;-89
2022/07/20 00:27:56;;;;;;;8.17;3.73;;;26.80;43.60;;;;;;4968231;28;20665;-86
2022/07/20 00:30:22;;;;;;;8.60;5.30;;;27.60;44.00;;;;;;4946705;28;20435;-83
2022/07/20 00:32:48;;;;;;;9.23;4.90;;;27.40;43.70;;;;;;4952919;28;20456;-85
2022/07/20 00:35:16;;;;;;;9.70;4.50;;;26.80;43.80;;;;;;4960711;28;20459;-87
2022/07/20 00:37:43;;;;;;;7.30;4.43;;;26.70;43.90;;;;;;4940236;28;21232;-86
2022/07/20 00:40:11;;;;;;;9.70;4.40;;;26.60;44.00;;;;;;4964549;28;20464;-87
2022/07/20 00:42:37;;;;;;;11.50;4.93;;;26.60;44.10;;;;;;4945434;28;21085;-87
2022/07/20 00:45:05;;;;;;;7.83;5.67;;;26.60;44.20;;;;;;4964144;28;20614;-87
2022/07/20 00:47:30;;;;;;;8.90;5.03;;;26.50;44.40;;;;;;4957019;28;20491;-86
2022/07/20 00:49:56;;;;;;;5.87;4.67;;;26.40;44.50;;;;;;4956965;28;20788;-85
2022/07/20 00:52:22;;;;;;;6.47;4.97;;;26.40;44.50;;;;;;4952566;28;20200;-86
2022/07/20 00:54:49;;;;;;;9.87;4.53;;;26.40;44.70;;;;;;4949620;28;20212;-88
2022/07/20 00:57:16;;;;;;;6.17;4.13;;;26.30;44.90;;;;;;4951514;28;20455;-87
2022/07/20 00:59:42;;;;;;;5.33;4.43;;;26.20;45.10;;;;;;4944719;28;20447;-86
2022/07/20 01:02:08;;;;;;;8.43;4.60;;;26.20;45.20;;;;;;4946362;28;20514;-88
2022/07/20 01:04:34;;;;;;;6.97;3.93;;;26.10;45.30;;;;;;4952799;28;20448;-87
2022/07/20 01:07:00;;;;;;;7.73;4.60;;;26.00;45.60;;;;;;4962470;28;20188;-87
2022/07/20 01:09:25;;;;;;;12.67;5.07;;;25.80;46.30;;;;;;4958210;28;20184;-87
2022/07/20 01:11:51;;;;;;;8.70;4.47;;;;;;;;;;4960238;28;20443;-86
2022/07/20 01:14:17;;;;;;;10.27;4.90;;;25.10;47.30;;;;;;4950935;28;20208;-88
2022/07/20 01:16:43;;;;;;;7.93;4.50;;;;;;;;;;4957909;28;20529;-88
2022/07/20 01:19:08;;;;;;;7.67;5.07;;;25.00;48.00;;;;;;4949417;28;20671;-88
2022/07/20 01:21:44;;;;;;;8.13;4.70;;;24.90;48.30;;;;;;4951885;28;20471;-88
2022/07/20 01:24:11;;;;;;;13.20;5.70;;;24.70;49.30;;;;;;4949884;28;20715;-87
2022/07/20 01:26:41;;;;;;;7.23;4.97;;;24.50;50.00;;;;;;4945523;28;21058;-86
2022/07/20 01:29:08;;;;;;;6.33;4.77;;;24.30;50.40;;;;;;4958052;28;20557;-85
2022/07/20 01:31:34;;;;;;;8.50;4.50;;;24.10;51.00;;;;;;4959788;28;20447;-86
2022/07/20 01:34:00;;;;;;;10.23;5.40;;;24.00;51.20;;;;;;4948959;28;20991;-87
2022/07/20 01:36:25;;;;;;;8.70;5.13;;;24.80;52.80;;;;;;4952196;28;20438;-88
2022/07/20 01:38:52;;;;;;;7.53;4.87;;;23.90;53.00;;;;;;4955032;28;20197;-87
2022/07/20 01:41:17;;;;;;;4.93;4.43;;;23.40;53.30;;;;;;4959402;28;20248;-88
2022/07/20 01:43:43;;;;;;;7.33;4.63;;;24.40;54.50;;;;;;4955697;28;21452;-89
2022/07/20 01:46:08;;;;;;;8.10;4.87;;;23.20;54.00;;;;;;4959011;28;20177;-85
2022/07/20 01:48:34;;;;;;;7.70;5.13;;;;;;;;;;4952191;28;20185;-87
2022/07/20 01:51:00;;;;;;;9.50;4.47;;;23.40;53.40;;;;;;4953028;28;20184;-86
2022/07/20 01:53:25;;;;;;;10.07;5.53;;;23.70;53.00;;;;;;4961054;28;20535;-89
2022/07/20 01:55:52;;;;;;;8.37;5.53;;;23.80;52.70;;;;;;4955454;28;20199;-87
2022/07/20 01:58:18;;;;;;;10.63;4.63;;;23.90;53.20;;;;;;4963548;28;20782;-85
2022/07/20 02:00:44;;;;;;;17.23;5.47;;;;;;;;;;4957480;28;20470;-89
2022/07/20 02:03:09;;;;;;;9.07;5.47;;;23.30;54.30;;;;;;4954093;28;20220;-87
2022/07/20 02:05:35;;;;;;;12.40;5.63;;;23.00;55.90;;;;;;4967550;28;20443;-87
2022/07/20 02:08:01;;;;;;;8.80;5.00;;;22.80;56.60;;;;;;4952973;28;20196;-87
2022/07/20 02:10:27;;;;;;;8.40;5.30;;;23.10;57.60;;;;;;4952421;28;20199;-86
2022/07/20 02:12:52;;;;;;;7.23;5.17;;;22.40;57.60;;;;;;4965481;28;20443;-86
2022/07/20 02:18:07;;;;;;;9.73;4.50;;;22.40;58.00;;;;;;4953282;28;20191;-88
2022/07/20 02:20:33;;;;;;;13.63;4.53;;;22.50;57.80;;;;;;4956962;28;20474;-86
2022/07/20 02:22:59;;;;;;;7.93;4.97;;;23.60;59.40;;;;;;4968620;28;20489;-85
2022/07/20 02:25:24;;;;;;;7.50;4.87;;;22.40;59.00;;;;;;4966284;28;22399;-88
2022/07/20 02:27:50;;;;;;;9.20;4.30;;;22.30;59.40;;;;;;4965281;28;20191;-89
2022/07/20 02:30:15;;;;;;;7.50;4.53;;;22.20;59.80;;;;;;4956108;28;20197;-85
2022/07/20 02:32:41;;;;;;;7.03;5.13;;;22.10;60.30;;;;;;4956274;28;20202;-86
2022/07/20 02:35:07;;;;;;;7.40;4.03;;;22.40;61.30;;;;;;4953801;28;20211;-88
2022/07/20 02:37:32;;;;;;;8.20;5.60;;;21.90;61.80;;;;;;4952317;28;20251;-87
2022/07/20 02:39:58;;;;;;;7.40;4.80;;;21.80;62.60;;;;;;4957466;28;20444;-85
2022/07/20 02:42:23;;;;;;;9.53;5.20;;;21.70;62.90;;;;;;4962177;28;20565;-90
2022/07/20 02:44:49;;;;;;;11.53;5.40;;;23.30;65.40;;;;;;4956803;28;21215;-86
2022/07/20 02:47:14;;;;;;;9.07;4.57;;;21.80;63.80;;;;;;4949773;28;20191;-85
2022/07/20 02:49:40;;;;;;;10.50;5.13;;;21.80;63.60;;;;;;4954929;28;20188;-86
2022/07/20 02:52:05;;;;;;;7.50;4.10;;;21.90;64.30;;;;;;4957216;28;20196;-85
2022/07/20 02:54:31;;;;;;;6.83;5.00;;;23.00;64.10;;;;;;4966206;28;20208;-87
2022/07/20 02:56:56;;;;;;;5.57;4.83;;;21.80;63.00;;;;;;4939916;28;20788;-83
2022/07/20 02:59:22;;;;;;;6.53;4.27;;;21.90;64.40;;;;;;4945304;28;22008;-87
2022/07/20 03:01:47;;;;;;;7.87;4.47;;;21.80;63.90;;;;;;4955259;28;20199;-87
2022/07/20 03:04:13;;;;;;;11.30;5.63;;;21.70;64.80;;;;;;4946659;28;20216;-88
2022/07/20 03:06:39;;;;;;;6.90;5.20;;;21.60;65.10;;;;;;4961032;28;20188;-84
2022/07/20 03:09:04;;;;;;;6.93;4.63;;;21.60;65.30;;;;;;4962381;28;20181;-84
2022/07/20 03:11:30;;;;;;;5.80;4.63;;;22.30;68.30;;;;;;4949607;28;20610;-84
2022/07/20 03:13:55;;;;;;;6.03;3.90;;;21.40;67.80;;;;;;4955584;28;20750;-85
2022/07/20 03:16:21;;;;;;;16.63;4.90;;;21.40;71.60;;;;;;4956588;28;20427;-86
2022/07/20 03:18:46;;;;;;;9.17;4.93;;;21.30;73.60;;;;;;4962608;28;20188;-85
2022/07/20 03:21:12;;;;;;;7.27;5.10;;;21.20;73.90;;;;;;4955891;28;20215;-86
2022/07/20 03:23:37;;;;;;;12.17;4.20;;;21.30;74.60;;;;;;4955068;28;20301;-87
2022/07/20 03:26:03;;;;;;;6.50;4.40;;;21.70;73.70;;;;;;4953029;28;20310;-86
2022/07/20 03:28:28;;;;;;;10.00;4.80;;;21.20;73.70;;;;;;4967687;28;20223;-89
2022/07/20 03:30:54;;;;;;;8.10;4.97;;;21.30;72.90;;;;;;4954105;28;20188;-85
2022/07/20 03:33:19;;;;;;;8.10;5.13;;;21.40;72.90;;;;;;4972357;28;20204;-85
2022/07/20 03:35:45;;;;;;;6.40;4.40;;;21.40;71.50;;;;;;4956144;28;20210;-88
2022/07/20 03:38:10;;;;;;;8.40;4.20;;;22.60;72.10;;;;;;4960863;28;20234;-85
2022/07/20 03:40:36;;;;;;;7.57;5.57;;;21.70;72.00;;;;;;4956238;28;20215;-85
2022/07/20 03:43:01;;;;;;;7.50;4.47;;;21.70;71.00;;;;;;4957276;28;20188;-88
2022/07/20 03:45:27;;;;;;;7.30;4.63;;;21.70;71.90;;;;;;4951940;28;20192;-89
2022/07/20 03:47:53;;;;;;;6.33;4.40;;;21.70;72.00;;;;;;4947956;28;20237;-86
2022/07/20 03:50:18;;;;;;;14.67;5.20;;;21.80;71.40;;;;;;4958064;28;20202;-86
2022/07/20 03:52:44;;;;;;;8.20;4.03;;;;;;;;;;4952391;28;20739;-86
2022/07/20 03:55:10;;;;;;;9.83;4.33;;;22.00;68.90;;;;;;4982206;28;21741;-87
2022/07/20 03:57:35;;;;;;;7.77;5.43;;;22.10;69.00;;;;;;4963212;28;21049;-86
2022/07/20 04:00:01;;;;;;;7.30;5.07;;;22.30;69.00;;;;;;4953249;28;20286;-88
2022/07/20 04:02:26;;;;;;;14.23;6.00;;;22.30;69.20;;;;;;4947740;28;20248;-86
2022/07/20 04:04:52;;;;;;;7.97;4.80;;;22.30;69.70;;;;;;4949150;28;21365;-86
2022/07/20 04:07:17;;;;;;;5.73;4.77;;;22.20;70.30;;;;;;4954426;28;20184;-87
2022/07/20 04:09:46;;;;;;;9.30;4.80;;;22.20;70.70;;;;;;4962732;28;20308;-87
2022/07/20 04:12:18;;;;;;;8.70;5.50;;;22.10;70.90;;;;;;4950539;28;20274;-88
2022/07/20 04:14:45;;;;;;;12.10;4.80;;;22.10;72.10;;;;;;4947217;28;20460;-87
2022/07/20 04:17:10;;;;;;;7.77;5.00;;;22.10;72.10;;;;;;4952105;28;20541;-90
2022/07/20 04:19:36;;;;;;;7.73;4.93;;;22.00;73.20;;;;;;4953943;28;20537;-89
2022/07/20 04:22:02;;;;;;;7.20;4.27;;;;;;;;;;4942728;28;20217;-86
2022/07/20 04:24:28;;;;;;;5.40;4.63;;;22.20;72.20;;;;;;4963037;23;20499;-88
2022/07/20 04:26:54;;;;;;;20.73;5.97;;;;;;;;;;4949453;28;20898;-85
2022/07/20 04:29:21;;;;;;;5.37;4.13;;;22.50;71.20;;;;;;4932709;29;20516;-87
2022/07/20 04:31:47;;;;;;;7.63;4.70;;;22.90;71.20;;;;;;4948549;28;20432;-86
2022/07/20 04:34:12;;;;;;;6.60;4.80;;;24.00;68.90;;;;;;4955757;28;20437;-88
2022/07/20 04:36:38;;;;;;;8.60;5.17;;;26.00;67.40;;;;;;4949916;28;20208;-87
2022/07/20 04:39:03;;;;;;;14.30;6.13;;;27.30;59.80;;;;;;4928224;28;20543;-87
2022/07/20 04:41:30;;;;;;;8.03;5.10;;;28.00;56.40;;;;;;4931831;28;20230;-86
2022/07/20 04:43:56;;;;;;;7.70;4.80;;;28.90;54.30;;;;;;4948709;28;20514;-85
2022/07/20 04:46:21;;;;;;;9.10;5.13;;;29.40;51.90;;;;;;4946105;28;20310;-86
2022/07/20 04:48:47;;;;;;;7.60;5.50;;;30.00;50.80;;;;;;4954807;28;20817;-86
2022/07/20 04:51:12;;;;;;;10.47;5.47;;;30.50;48.80;;;;;;4945216;28;20248;-86
2022/07/20 04:53:38;;;;;;;9.07;5.23;;;30.70;49.40;;;;;;4946770;28;20669;-87
2022/07/20 04:56:03;;;;;;;17.53;5.50;;;31.80;47.70;;;;;;4928196;28;20223;-87
2022/07/20 04:58:32;;;;;;;5.87;5.17;;;32.90;45.70;;;;;;4927523;28;20185;-87
2022/07/20 05:00:58;;;;;;;6.70;5.00;;;34.20;43.70;;;;;;4944634;28;20201;-86
2022/07/20 05:03:24;;;;;;;11.80;6.90;;;34.20;42.50;;;;;;4931252;28;20445;-87
2022/07/20 05:05:49;;;;;;;13.17;7.17;;;35.60;41.30;;;;;;4942111;28;22010;-87
2022/07/20 05:08:15;;;;;;;9.17;6.70;;;36.40;38.60;;;;;;4944685;28;20193;-87
2022/07/20 05:10:41;;;;;;;8.80;8.00;;;37.10;37.80;;;;;;4930105;28;20195;-87
2022/07/20 05:13:06;;;;;;;9.10;8.20;;;37.70;36.90;;;;;;4928667;28;20208;-85
2022/07/20 05:15:32;;;;;;;14.27;8.63;;;;;;;;;;4929695;28;20199;-87
2022/07/20 05:17:58;;;;;;;10.23;9.30;;;39.10;34.10;;;;;;4945211;28;20177;-87
2022/07/20 05:20:23;;;;;;;9.47;8.77;;;39.10;33.80;;;;;;4939132;28;20475;-86
2022/07/20 05:22:49;;;;;;;10.13;9.20;;;39.30;33.90;;;;;;4925679;29;20212;-87
2022/07/20 05:25:14;;;;;;;12.37;10.27;;;39.30;33.40;;;;;;4935564;29;20204;-87
2022/07/20 05:27:40;;;;;;;10.47;9.80;;;40.30;33.30;;;;;;4929691;28;20225;-87
2022/07/20 05:30:06;;;;;;;12.13;11.00;;;41.30;31.60;;;;;;4927596;28;20188;-87
2022/07/20 05:32:32;;;;;;;13.53;12.30;;;42.00;30.60;;;;;;4931190;29;20262;-87
2022/07/20 05:34:57;;;;;;;13.93;12.77;;;42.40;31.30;;;;;;4933162;28;20460;-87
2022/07/20 05:37:23;;;;;;;14.13;12.90;;;43.50;30.40;;;;;;4935449;28;20232;-86
2022/07/20 05:39:49;;;;;;;13.50;12.20;;;;;;;;;;4936448;29;20185;-86
2022/07/20 05:42:15;;;;;;;14.40;13.13;;;44.30;28.10;;;;;;4953288;28;20272;-88
2022/07/20 05:44:40;;;;;;;14.93;13.93;;;43.80;28.10;;;;;;4933448;28;20618;-87
2022/07/20 05:47:06;;;;;;;15.57;14.70;;;;;;;;;;4948808;28;20209;-86
2022/07/20 05:49:33;;;;;;;16.93;15.70;;;43.50;28.20;;;;;;4938929;29;20189;-88
2022/07/20 05:52:00;;;;;;;16.40;15.47;;;43.70;28.30;;;;;;4945743;28;20453;-87
2022/07/20 05:54:26;;;;;;;17.40;16.10;;;44.50;28.00;;;;;;4938131;28;20516;-86
2022/07/20 05:56:52;;;;;;;17.53;16.30;;;45.70;27.70;;;;;;4935487;28;20565;-85
2022/07/20 05:59:18;;;;;;;18.57;16.97;;;;;;;;;;4949154;28;20207;-86
2022/07/20 06:01:46;;;;;;;18.87;17.03;;;46.60;26.20;;;;;;4934797;29;20271;-88
2022/07/20 06:04:12;;;;;;;17.60;16.60;;;;;;;;;;4937178;29;21035;-86
2022/07/20 06:06:38;;;;;;;17.53;16.43;;;47.00;25.90;;;;;;4954200;28;20480;-87
2022/07/20 06:09:08;;;;;;;17.27;15.93;;;47.40;26.20;;;;;;4938305;28;20429;-87
2022/07/20 06:11:34;;;;;;;17.40;16.30;;;47.10;24.90;;;;;;4934628;28;20197;-86
2022/07/20 06:14:00;;;;;;;18.03;16.83;;;47.10;25.30;;;;;;4933059;29;20464;-86
2022/07/20 06:16:26;;;;;;;19.30;17.90;;;;;;;;;;4929921;29;20499;-87
2022/07/20 06:18:51;;;;;;;20.77;19.47;;;49.10;24.60;;;;;;4948990;28;20472;-86
2022/07/20 06:21:17;;;;;;;18.37;16.90;;;49.50;24.50;;;;;;4938100;28;20486;-86
2022/07/20 06:23:43;;;;;;;19.17;18.07;;;49.40;24.40;;;;;;4935836;29;20208;-88
2022/07/20 06:26:08;;;;;;;18.67;17.20;;;;;;;;;;4943427;28;20222;-87
2022/07/20 06:28:35;;;;;;;20.93;19.63;;;49.30;24.20;;;;;;4951814;28;20702;-86
2022/07/20 06:31:01;;;;;;;21.00;19.50;;;;;;;;;;4934370;28;20213;-87
2022/07/20 06:33:26;;;;;;;18.70;16.83;;;50.30;24.60;;;;;;4947828;28;20460;-87
2022/07/20 06:38:22;;;;;;;20.13;18.73;;;;;;;;;;4939377;28;20696;-91
2022/07/20 06:40:48;;;;;;;18.70;17.60;;;;;;;;;;4942374;28;20479;-89
2022/07/20 06:43:14;;;;;;;16.20;14.97;;;;;;;;;;4942525;29;20183;-90
2022/07/20 06:45:40;;;;;;;20.03;18.73;;;;;;;;;;4955171;28;20479;-90
2022/07/20 06:48:06;;;;;;;14.97;14.03;;;;;;;;;;4974350;28;20270;-89
2022/07/20 06:50:32;;;;;;;17.73;16.30;;;;;;;;;;4963274;28;20176;-89
2022/07/20 06:52:58;;;;;;;16.17;15.17;;;;;;;;;;4968373;28;20446;-90
2022/07/20 06:55:24;;;;;;;21.80;20.40;;;;;;;;;;4969836;28;20291;-90
2022/07/20 06:57:49;;;;;;;19.47;17.80;;;49.70;23.80;;;;;;4957742;28;20187;-91
2022/07/20 07:00:15;;;;;;;20.43;18.77;;;;;;;;;;4961315;28;20219;-90
2022/07/20 07:02:41;;;;;;;21.47;20.00;;;;;;;;;;4970658;28;20180;-90
2022/07/20 07:05:07;;;;;;;21.30;20.00;;;50.50;23.20;;;;;;4963596;28;20447;-91
2022/07/20 07:07:33;;;;;;;19.07;17.80;;;48.90;23.00;;;;;;4970286;28;20439;-90
2022/07/20 07:09:59;;;;;;;20.30;18.97;;;;;;;;;;4960550;28;20513;-91
2022/07/20 07:12:25;;;;;;;19.20;18.13;;;;;;;;;;4960786;28;20258;-91
2022/07/20 07:14:51;;;;;;;20.40;18.73;;;;;;;;;;4960559;28;20245;-90
2022/07/20 07:17:17;;;;;;;21.50;20.27;;;;;;;;;;4957007;28;20188;-92
2022/07/20 07:19:49;;;;;;;23.70;22.00;;;52.10;22.50;;;;;;4966205;28;20184;-90
2022/07/20 07:22:14;;;;;;;27.17;25.17;;;52.20;22.90;;;;;;4960980;28;20470;-90
2022/07/20 07:24:41;;;;;;;26.07;24.00;;;52.10;22.50;;;;;;4965458;28;20427;-91
2022/07/20 07:27:07;;;;;;;25.30;23.70;;;;;;;;;;4981361;28;20475;-92
2022/07/20 07:29:33;;;;;;;24.03;22.53;;;50.50;22.90;;;;;;4963357;28;20803;-90
2022/07/20 07:31:58;;;;;;;23.10;21.13;;;;;;;;;;4962490;28;20580;-89
2022/07/20 07:34:25;;;;;;;24.00;22.50;;;50.40;23.10;;;;;;4963036;28;20278;-88
2022/07/20 07:36:51;;;;;;;22.60;21.10;;;;;;;;;;4972691;28;20271;-91
2022/07/20 07:39:17;;;;;;;21.40;20.00;;;49.40;22.90;;;;;;4962099;28;20872;-89
2022/07/20 07:41:43;;;;;;;21.37;19.53;;;;;;;;;;4960521;28;20490;-91
2022/07/20 07:44:09;;;;;;;24.63;22.73;;;;;;;;;;4960456;28;20249;-90
2022/07/20 07:46:35;;;;;;;23.33;21.63;;;;;;;;;;4962228;28;20428;-89
2022/07/20 07:49:01;;;;;;;23.70;21.40;;;48.20;23.30;;;;;;4961318;28;20424;-91
2022/07/20 07:51:26;;;;;;;24.27;22.43;;;48.30;24.70;;;;;;4959183;28;20447;-90
2022/07/20 07:53:53;;;;;;;22.37;20.63;;;;;;;;;;4969891;28;20211;-90
2022/07/20 07:56:19;;;;;;;24.60;22.40;;;46.40;24.30;;;;;;4964572;28;20193;-89
2022/07/20 07:58:45;;;;;;;25.60;23.77;;;44.50;26.60;;;;;;4974887;28;20519;-89
2022/07/20 08:01:11;;;;;;;23.40;22.10;;;;;;;;;;4959221;28;20532;-90
2022/07/20 08:03:37;;;;;;;24.73;23.03;;;44.90;27.00;;;;;;4958867;28;20197;-90
2022/07/20 08:06:03;;;;;;;23.73;22.33;;;46.20;25.80;;;;;;4961584;28;20462;-92
2022/07/20 08:08:30;;;;;;;26.77;25.07;;;;;;;;;;4967071;28;20186;-90
2022/07/20 08:10:55;;;;;;;23.63;22.30;;;46.20;25.70;;;;;;4961335;28;20500;-91
2022/07/20 08:13:21;;;;;;;21.50;19.80;;;;;;;;;;4957148;28;20444;-89
2022/07/20 08:15:47;;;;;;;20.67;19.20;;;;;;;;;;4964757;28;20204;-91
2022/07/20 08:18:13;;;;;;;21.10;19.90;;;46.90;25.50;;;;;;4954729;28;20438;-90
2022/07/20 08:20:39;;;;;;;21.87;20.67;;;;;;;;;;4964404;28;20227;-89
2022/07/20 08:23:04;;;;;;;25.23;23.40;;;47.80;24.70;;;;;;4966497;28;20274;-91
2022/07/20 08:25:30;;;;;;;25.90;24.50;;;;;;;;;;4960752;28;20215;-90
2022/07/20 08:28:09;;;;;;;23.50;22.20;;;47.00;24.80;;;;;;4971458;28;20194;-91
2022/07/20 08:30:34;;;;;;;27.40;25.23;;;46.00;25.00;;;;;;4959219;28;20563;-89
2022/07/20 08:33:00;;;;;;;23.30;21.67;;;45.40;25.30;;;;;;4959145;28;20507;-89
2022/07/20 08:35:26;;;;;;;23.20;21.00;;;;;;;;;;4963459;28;20204;-90
2022/07/20 08:37:51;;;;;;;22.53;20.53;;;44.70;25.90;;;;;;4971454;28;20191;-92
2022/07/20 08:40:17;;;;;;;21.30;20.00;;;;;;;;;;4969159;28;20197;-88
2022/07/20 08:42:43;;;;;;;24.27;22.37;;;;;;;;;;4960203;28;20211;-90
2022/07/20 08:45:10;;;;;;;17.90;16.37;;;45.30;25.70;;;;;;4960724;28;20452;-89
2022/07/20 08:47:39;;;;;;;21.20;19.80;;;45.60;24.90;;;;;;4960181;28;20952;-91
2022/07/20 08:50:05;;;;;;;20.67;19.30;;;45.60;25.30;;;;;;4966202;28;20450;-89
2022/07/20 08:52:31;;;;;;;20.43;19.00;;;;;;;;;;4967546;28;20435;-89
2022/07/20 08:54:56;;;;;;;22.00;20.63;;;46.20;24.80;;;;;;4963015;28;20206;-89
2022/07/20 08:57:22;;;;;;;22.83;21.17;;;46.70;24.40;;;;;;4962679;28;20184;-89
2022/07/20 08:59:48;;;;;;;22.43;20.90;;;;;;;;;;4975562;28;20181;-89
2022/07/20 09:02:15;;;;;;;23.37;21.57;;;46.00;24.80;;;;;;4977921;28;20214;-90
2022/07/20 09:04:53;;;;;;;20.17;18.60;;;44.70;25.30;;;;;;4980893;28;20458;-89
2022/07/20 09:07:38;;;;;;;20.60;18.97;;;43.50;26.90;;;;;;4964402;28;20450;-89
2022/07/20 09:10:06;;;;;;;20.77;19.47;;;44.80;26.30;;;;;;4965796;28;20416;-89
2022/07/20 09:12:50;;;;;;;16.90;15.37;;;44.40;26.00;;;;;;4971053;28;20437;-91
2022/07/20 09:15:33;;;;;;;21.07;19.37;;;43.00;26.80;;;;;;4965003;28;21241;-88
2022/07/20 09:18:04;;;;;;;19.73;15.73;;;40.20;28.50;;;;;;4964675;28;21155;-88
2022/07/20 09:20:34;;;;;;;15.50;14.40;;;39.90;29.40;;;;;;4961923;28;20478;-89
2022/07/20 09:23:07;;;;;;;14.93;13.80;;;39.30;29.80;;;;;;5047935;28;20558;-90
2022/07/20 09:25:33;;;;;;;17.57;16.40;;;38.90;30.30;;;;;;4964280;28;20473;-89
2022/07/20 09:28:00;;;;;;;16.30;14.73;;;37.70;30.00;;;;;;4964184;28;20419;-89
2022/07/20 09:30:26;;;;;;;17.37;15.63;;;38.20;31.80;;;;;;4960301;28;20439;-88
2022/07/20 09:33:02;;;;;;;17.23;15.87;;;39.00;31.20;;;;;;4958444;28;20438;-90
2022/07/20 09:35:35;;;;;;;19.17;17.53;;;38.40;30.40;;;;;;4958894;28;20463;-89
2022/07/20 09:38:03;;;;;;;17.63;16.20;;;38.40;31.30;;;;;;4969915;28;20463;-88
2022/07/20 09:40:43;;;;;;;15.50;13.90;;;38.50;31.60;;;;;;4981401;28;20483;-89
2022/07/20 09:43:28;;;;;;;16.53;15.23;;;38.60;30.80;;;;;;4965095;28;20497;-89
2022/07/20 09:45:54;;;;;;;17.10;15.80;;;37.70;32.10;;;;;;4964870;28;20455;-89
2022/07/20 09:48:23;;;;;;;16.27;15.07;;;38.10;31.80;;;;;;4963445;28;20991;-90
2022/07/20 09:50:49;;;;;;;16.97;15.40;;;37.80;31.80;;;;;;4970975;28;20439;-89
2022/07/20 09:53:15;;;;;;;20.53;16.63;;;38.20;32.00;;;;;;4978191;28;20449;-89
2022/07/20 09:55:42;;;;;;;16.93;15.43;;;38.60;31.30;;;;;;4971050;28;20554;-89
2022/07/20 09:58:08;;;;;;;16.30;15.00;;;37.90;31.20;;;;;;4974326;28;20428;-90
2022/07/20 10:00:35;;;;;;;17.27;15.73;;;39.20;32.00;;;;;;4964491;28;20500;-91
2022/07/20 10:03:03;;;;;;;16.93;15.73;;;39.30;30.00;;;;;;4960737;28;20466;-88
2022/07/20 10:05:33;;;;;;;16.37;14.97;;;38.30;31.00;;;;;;4961631;28;20451;-89
2022/07/20 10:08:04;;;;;;;16.40;14.93;;;38.70;31.70;;;;;;4961007;28;20854;-90
2022/07/20 10:10:30;;;;;;;16.83;15.43;;;38.80;30.70;;;;;;4966184;28;20432;-89
2022/07/20 10:12:57;;;;;;;17.43;15.90;;;38.50;31.30;;;;;;4967530;28;20439;-89
2022/07/20 10:15:31;;;;;;;22.43;16.27;;;38.00;33.00;;;;;;4962803;28;20546;-90
2022/07/20 10:17:57;;;;;;;17.27;15.63;;;38.60;32.40;;;;;;4960863;28;20427;-92
2022/07/20 10:20:35;;;;;;;17.23;15.83;;;38.70;32.40;;;;;;4962590;28;20459;-90
2022/07/20 10:23:16;;;;;;;17.20;15.77;;;39.30;32.80;;;;;;4959311;28;20447;-89
2022/07/20 10:28:32;;;;;;;16.53;15.33;;;37.80;32.50;;;;;;5038450;28;20805;-89
2022/07/20 10:31:02;;;;;;;18.63;17.20;;;37.70;34.70;;;;;;5040517;28;20432;-89
2022/07/20 10:33:27;;;;;;;19.60;15.93;;;37.80;34.30;;;;;;5048355;28;20502;-88
2022/07/20 10:36:41;;;;;;;17.33;15.77;;;38.00;34.40;;;;;;5042005;28;20563;-90
2022/07/20 10:38:39;;;;;;;16.33;15.00;;;37.80;34.20;;;;;;5034162;28;20186;-90
2022/07/20 10:44:29;;;;;;;16.33;14.97;;;36.30;36.60;;;;;;5041763;28;20242;-90
2022/07/20 10:46:55;;;;;;;16.17;15.00;;;35.30;38.30;;;;;;4977839;28;21185;-89
2022/07/20 10:50:00;;;;;;;16.27;14.90;;;34.90;38.70;;;;;;5017874;28;20454;-90
2022/07/20 10:52:32;;;;;;;17.20;15.80;;;34.60;39.20;;;;;;5034849;28;20185;-90
2022/07/20 10:54:58;;;;;;;18.70;16.60;;;34.50;39.20;;;;;;5038359;28;20505;-89
2022/07/20 10:57:24;;;;;;;17.07;15.37;;;34.50;39.60;;;;;;5046956;28;20617;-89
2022/07/20 11:00:07;;;;;;;17.40;15.80;;;34.80;40.30;;;;;;5047950;28;20191;-88
2022/07/20 11:02:34;;;;;;;17.20;15.67;;;34.00;41.40;;;;;;5041955;28;20439;-89
2022/07/20 11:05:00;;;;;;;17.53;15.80;;;34.20;41.20;;;;;;5036524;28;20457;-90
2022/07/20 11:07:34;;;;;;;19.73;17.57;;;34.30;41.90;;;;;;5039325;28;20424;-90
2022/07/20 11:10:17;;;;;;;21.97;18.73;;;36.00;43.10;;;;;;5035553;28;20431;-89
2022/07/20 11:12:43;;;;;;;20.73;18.50;;;;;;;;;;5040118;28;20417;-91
2022/07/20 11:15:09;;;;;;;21.40;19.00;;;34.00;42.70;;;;;;5038909;28;20485;-90
2022/07/20 11:17:35;;;;;;;21.30;18.97;;;34.20;43.70;;;;;;5032320;28;20469;-89
2022/07/20 11:20:01;;;;;;;21.37;18.20;;;34.20;43.20;;;;;;5036158;28;20474;-90
2022/07/20 11:22:26;;;;;;;20.10;18.20;;;34.90;43.70;;;;;;5040700;28;20182;-90
2022/07/20 11:24:55;;;;;;;20.30;18.20;;;34.90;41.70;;;;;;5049618;28;20985;-90
2022/07/20 11:27:21;;;;;;;21.40;19.40;;;35.40;42.10;;;;;;5041237;28;20196;-91
2022/07/20 11:29:49;;;;;;;20.00;18.00;;;34.40;42.10;;;;;;5037455;28;20442;-90
2022/07/20 11:32:15;;;;;;;25.37;19.23;;;34.40;42.70;;;;;;5045569;28;20515;-91
2022/07/20 11:34:48;;;;;;;21.03;19.03;;;34.70;41.80;;;;;;5039446;28;21029;-91
2022/07/20 11:37:16;;;;;;;23.70;19.40;;;34.40;41.80;;;;;;5041780;28;20187;-90
2022/07/20 11:39:42;;;;;;;21.30;19.23;;;35.50;43.00;;;;;;5045225;28;20423;-88
2022/07/20 11:42:16;;;;;;;22.50;20.27;;;34.40;42.50;;;;;;5039797;28;20493;-91
2022/07/20 11:44:58;;;;;;;21.93;19.30;;;34.70;43.70;;;;;;5037937;28;20439;-88
2022/07/20 11:47:24;;;;;;;22.37;20.47;;;35.30;43.40;;;;;;5042189;28;20427;-91
2022/07/20 11:50:09;;;;;;;22.40;20.10;;;34.70;42.90;;;;;;5037734;28;20524;-91
2022/07/20 11:52:42;;;;;;;25.03;20.10;;;34.80;43.70;;;;;;5044919;28;20196;-88
2022/07/20 11:55:09;;;;;;;23.77;21.50;;;34.60;44.20;;;;;;5046523;28;21204;-90
2022/07/20 11:57:35;;;;;;;23.97;21.47;;;;;;;;;;5040145;28;20449;-90
2022/07/20 12:00:01;;;;;;;23.53;21.13;;;34.70;44.20;;;;;;5040656;28;20440;-89
2022/07/20 12:02:27;;;;;;;25.07;22.60;;;34.70;45.40;;;;;;5046068;28;20463;-90
2022/07/20 12:04:53;;;;;;;22.23;19.90;;;;;;;;;;5046118;28;20268;-91
2022/07/20 12:10:26;;;;;;;21.90;19.70;;;35.00;44.30;;;;;;5034094;28;20447;-88
2022/07/20 12:13:06;;;;;;;24.33;21.10;;;34.50;44.20;;;;;;5045028;28;20431;-90
2022/07/20 12:15:32;;;;;;;22.20;19.80;;;34.30;45.60;;;;;;5051402;28;20456;-90
2022/07/20 12:17:58;;;;;;;23.60;20.93;;;;;;;;;;5032641;28;20437;-89
2022/07/20 12:20:25;;;;;;;20.87;19.00;;;34.60;43.70;;;;;;5034777;28;20219;-90
2022/07/20 12:22:53;;;;;;;20.13;18.13;;;34.50;44.50;;;;;;5035272;28;20445;-89
2022/07/20 12:25:19;;;;;;;19.80;17.90;;;34.80;44.90;;;;;;5038088;28;20459;-90
2022/07/20 12:27:45;;;;;;;20.50;18.40;;;34.50;42.80;;;;;;5029210;28;20463;-88
2022/07/20 12:30:34;;;;;;;19.57;17.77;;;34.40;42.50;;;;;;5041195;28;20442;-90
2022/07/20 12:33:12;;;;;;;20.60;18.47;;;34.90;43.30;;;;;;5031764;28;20520;-90
2022/07/20 12:35:40;;;;;;;20.97;18.57;;;33.50;43.20;;;;;;5032624;28;20481;-90
2022/07/20 12:38:06;;;;;;;24.03;19.80;;;34.50;44.80;;;;;;5035189;28;20447;-91
2022/07/20 12:40:48;;;;;;;31.97;18.37;;;35.50;45.30;;;;;;5033645;28;20454;-89
2022/07/20 12:43:33;;;;;;;28.90;17.33;;;34.60;43.90;;;;;;5040655;28;20381;-89
2022/07/20 12:46:08;;;;;;;19.57;17.20;;;34.40;43.00;;;;;;5036568;28;20519;-89
2022/07/20 12:48:35;;;;;;;19.43;17.50;;;34.40;44.50;;;;;;5044953;28;20424;-90
2022/07/20 12:51:00;;;;;;;20.60;18.50;;;34.80;43.70;;;;;;5034147;28;20456;-89
2022/07/20 12:53:28;;;;;;;21.50;19.60;;;34.40;44.10;;;;;;5036034;28;20510;-89
2022/07/20 12:55:53;;;;;;;20.30;18.40;;;33.40;44.90;;;;;;5041511;28;20852;-90
2022/07/20 12:58:19;;;;;;;20.40;18.20;;;33.50;46.40;;;;;;5030078;28;20440;-90
2022/07/20 13:00:44;;;;;;;23.57;21.27;;;32.80;46.10;;;;;;5037109;28;20246;-87
2022/07/20 13:03:10;;;;;;;23.13;20.83;;;32.40;47.20;;;;;;5052669;28;20633;-87
2022/07/20 13:05:37;;;;;;;27.33;20.23;;;32.20;48.60;;;;;;5034713;28;20621;-90
2022/07/20 13:08:02;;;;;;;28.00;20.80;;;34.10;50.40;;;;;;5031749;28;20274;-89